La Grange Park, Illinois
Current Conditions -  °F | °C
As of 11:53 PM on Monday 26 Jan 2015 (Local Time) from KMDW Reporting Station
Light Snow Light Snow  
Wind Chill: 22°   Ceiling: 1100
Heat Index: 28°   Visibility: 3mi
Dew Point: 25°   Wind: 6mph
Humidity: 88%   Direction: 110°ESE
Pressure: 29.91"   Gusts: NA
Location:  41.82°N, 87.87°W
Report Text: KMDW 270553Z 11005KT 3SM -SN BR OVC011 M02/M04 A2991 RMK AO2 SLP141 4/001 P0000 60004 I6000 T10221039 11022 21028 410171061 50000
Loading
Personal Weather Stations






























Interactive Weather Map New forecast layout! Learn more

10-Day Weather Forecast

Advertisements
Track Severe Weather on mobile